createdAt,value
2023-04-05T00:02:33.347Z,6.65
2023-04-05T00:07:34.910Z,6.62
2023-04-05T00:12:36.235Z,6.61
2023-04-05T00:17:37.937Z,6.55
2023-04-05T00:22:41.859Z,6.58
2023-04-05T00:27:44.479Z,6.55
2023-04-05T00:32:48.058Z,6.60
2023-04-05T00:37:49.393Z,6.57
2023-04-05T00:42:50.859Z,6.64
2023-04-05T00:47:52.319Z,6.62
2023-04-05T00:52:54.082Z,6.69
2023-04-05T00:57:59.014Z,6.61
2023-04-05T01:03:03.452Z,6.53
2023-04-05T01:08:15.966Z,6.50
2023-04-05T01:13:17.690Z,6.49
2023-04-05T01:18:19.303Z,6.34
2023-04-05T01:23:32.996Z,6.42
2023-04-05T01:29:25.452Z,6.43
2023-04-05T01:34:56.252Z,6.47
2023-04-05T01:39:58.881Z,6.31
2023-04-05T01:45:00.272Z,6.28
2023-04-05T01:50:01.695Z,6.22
2023-04-05T01:55:03.563Z,6.18
2023-04-05T02:00:05.262Z,6.10
2023-04-05T02:05:07.140Z,6.05
2023-04-05T02:10:08.994Z,5.93
2023-04-05T02:15:10.647Z,5.83
2023-04-05T02:20:14.480Z,5.82
2023-04-05T02:25:16.450Z,5.76
2023-04-05T02:30:17.875Z,5.79
2023-04-05T02:35:21.143Z,5.74
2023-04-05T02:40:23.116Z,5.68
2023-04-05T02:45:25.002Z,5.59
2023-04-05T02:50:26.489Z,5.56
2023-04-05T02:55:30.921Z,5.52
2023-04-05T03:00:32.516Z,5.47
2023-04-05T03:05:33.881Z,5.48
2023-04-05T03:10:37.155Z,5.40
2023-04-05T03:15:38.708Z,5.41
2023-04-05T03:20:40.394Z,5.30
2023-04-05T03:25:42.104Z,5.26
2023-04-05T03:30:43.792Z,5.31
2023-04-05T03:35:45.484Z,5.23
2023-04-05T03:40:46.876Z,5.18
2023-04-05T03:45:48.422Z,5.04
2023-04-05T03:50:50.441Z,4.99
2023-04-05T03:55:54.028Z,4.94
2023-04-05T04:00:56.762Z,4.93
2023-04-05T04:05:58.275Z,4.89
2023-04-05T04:11:00.022Z,4.78
2023-04-05T04:16:01.420Z,4.73
2023-04-05T04:21:07.092Z,4.71
2023-04-05T04:26:09.624Z,4.66
2023-04-05T04:31:14.264Z,4.59
2023-04-05T04:36:18.008Z,4.53
2023-04-05T04:41:22.956Z,4.48
2023-04-05T04:46:30.558Z,4.44
2023-04-05T04:51:33.128Z,4.39
2023-04-05T04:56:34.753Z,4.42
2023-04-05T05:01:40.807Z,4.37
2023-04-05T05:06:42.178Z,4.30
2023-04-05T05:11:43.608Z,4.27
2023-04-05T05:16:45.821Z,4.23
2023-04-05T05:21:49.636Z,4.24
2023-04-05T05:26:51.226Z,4.11
2023-04-05T05:31:52.558Z,4.17
2023-04-05T05:36:57.505Z,4.27
2023-04-05T05:41:58.886Z,4.29
2023-04-05T05:47:00.431Z,4.29
2023-04-05T05:52:03.545Z,4.31
2023-04-05T05:57:04.981Z,4.38
2023-04-05T06:02:06.370Z,4.47
2023-04-05T06:07:07.729Z,4.52
2023-04-05T06:12:09.331Z,4.74
2023-04-05T06:17:10.853Z,4.89
2023-04-05T06:22:12.213Z,4.96
2023-04-05T06:27:14.651Z,5.27
2023-04-05T06:32:16.042Z,5.47
2023-04-05T06:37:17.462Z,5.49
2023-04-05T06:42:18.799Z,5.75
2023-04-05T06:47:20.282Z,5.93
2023-04-05T06:52:21.636Z,6.14
2023-04-05T06:57:22.963Z,6.32
2023-04-05T07:02:24.520Z,6.46
2023-04-05T07:07:26.069Z,6.64
2023-04-05T07:12:27.529Z,6.84
2023-04-05T07:17:29.012Z,6.95
2023-04-05T07:22:30.361Z,7.00
2023-04-05T07:27:31.890Z,7.17
2023-04-05T07:32:34.548Z,7.20
2023-04-05T07:37:36.130Z,7.37
2023-04-05T07:42:37.692Z,7.55
2023-04-05T07:47:39.795Z,7.61
2023-04-05T07:52:41.940Z,7.78
2023-04-05T07:57:43.330Z,7.92
2023-04-05T08:02:44.879Z,7.92
2023-04-05T08:07:46.235Z,8.10
2023-04-05T08:12:47.565Z,8.00
2023-04-05T08:17:48.901Z,8.00
2023-04-05T08:22:50.275Z,8.36
2023-04-05T08:27:51.617Z,8.43
2023-04-05T08:32:53.467Z,8.52
2023-04-05T08:37:54.806Z,8.78
2023-04-05T08:43:07.909Z,8.99
2023-04-05T08:48:09.315Z,9.25
2023-04-05T08:53:10.822Z,9.55
2023-04-05T08:58:14.418Z,9.69
2023-04-05T09:03:24.068Z,10.05
2023-04-05T09:08:25.556Z,9.99
2023-04-05T09:13:26.831Z,10.34
2023-04-05T09:18:28.297Z,10.73
2023-04-05T09:23:29.687Z,10.94
2023-04-05T09:28:42.476Z,11.30
2023-04-05T09:33:43.965Z,11.65
2023-04-05T09:38:46.571Z,12.06
2023-04-05T09:43:47.865Z,11.91
2023-04-05T09:48:51.027Z,12.19
2023-04-05T09:54:06.589Z,12.66
2023-04-05T09:59:13.472Z,12.87
2023-04-05T10:04:15.052Z,12.93
2023-04-05T10:09:17.983Z,13.52
2023-04-05T10:14:19.784Z,14.33
2023-04-05T10:19:29.062Z,16.19
2023-04-05T10:24:54.200Z,20.56
2023-04-05T10:30:08.780Z,22.43
2023-04-05T10:35:17.138Z,20.97
2023-04-05T10:40:24.236Z,19.13
2023-04-05T10:45:27.378Z,18.66
2023-04-05T10:50:29.646Z,21.51
2023-04-05T10:55:31.600Z,25.31
2023-04-05T11:00:33.987Z,27.61
2023-04-05T11:05:37.385Z,28.57
2023-04-05T11:10:39.662Z,29.30
2023-04-05T11:15:41.356Z,29.96
2023-04-05T11:20:52.568Z,30.26
2023-04-05T11:25:57.557Z,30.71
2023-04-05T11:31:13.155Z,31.27
2023-04-05T11:36:29.780Z,31.48
2023-04-05T11:41:33.633Z,31.95
2023-04-05T11:46:35.756Z,32.57
2023-04-05T11:51:37.642Z,32.86
2023-04-05T11:56:38.961Z,33.48
2023-04-05T12:01:44.909Z,31.42
2023-04-05T12:06:46.206Z,32.81
2023-04-05T12:11:55.122Z,32.49
2023-04-05T12:16:56.537Z,33.23
2023-04-05T12:21:57.994Z,34.22
2023-04-05T12:27:01.192Z,33.85
2023-04-05T12:32:04.347Z,34.08
2023-04-05T12:37:05.892Z,34.00
2023-04-05T12:42:07.225Z,34.03
2023-04-05T12:47:10.978Z,33.98
2023-04-05T12:52:19.863Z,32.64
2023-04-05T12:57:31.950Z,29.25
2023-04-05T13:02:33.393Z,24.86
2023-04-05T13:07:34.752Z,23.58
2023-04-05T13:12:36.535Z,22.95
2023-04-05T13:17:38.108Z,22.45
2023-04-05T13:22:39.753Z,21.93
2023-04-05T13:27:41.249Z,20.40
2023-04-05T13:32:42.657Z,19.68
2023-04-05T13:37:44.117Z,19.50
2023-04-05T13:42:45.874Z,19.35
2023-04-05T13:47:47.248Z,19.50
2023-04-05T13:52:48.783Z,19.30
2023-04-05T13:57:50.110Z,18.83
2023-04-05T14:02:51.905Z,18.57
2023-04-05T14:07:53.267Z,17.81
2023-04-05T14:12:54.592Z,17.35
2023-04-05T14:17:55.985Z,17.22
2023-04-05T14:22:58.689Z,17.02
2023-04-05T14:28:01.668Z,16.11
2023-04-05T14:33:03.231Z,15.76
2023-04-05T14:38:04.665Z,15.48
2023-04-05T14:43:06.275Z,15.59
2023-04-05T14:48:07.765Z,15.41
2023-04-05T14:53:10.398Z,15.34
2023-04-05T14:58:14.191Z,15.12
2023-04-05T15:03:16.351Z,14.82
2023-04-05T15:08:17.814Z,14.67
2023-04-05T15:13:20.742Z,14.57
2023-04-05T15:18:22.116Z,14.23
2023-04-05T15:23:23.788Z,14.24
2023-04-05T15:28:25.184Z,14.18
2023-04-05T15:33:26.568Z,13.88
2023-04-05T15:38:28.253Z,13.85
2023-04-05T15:43:31.679Z,13.76
2023-04-05T15:48:33.060Z,13.69
2023-04-05T15:53:34.446Z,13.69
2023-04-05T15:58:37.253Z,13.56
2023-04-05T16:03:39.085Z,13.48
2023-04-05T16:08:40.616Z,13.33
2023-04-05T16:13:42.086Z,13.19
2023-04-05T16:18:43.501Z,13.04
2023-04-05T16:23:46.451Z,12.95
2023-04-05T16:28:48.100Z,12.85
2023-04-05T16:33:49.649Z,12.71
2023-04-05T16:38:51.857Z,12.71
2023-04-05T16:43:53.301Z,12.66
2023-04-05T16:48:54.743Z,12.59
2023-04-05T16:53:56.155Z,12.46
2023-04-05T16:58:58.292Z,12.36
2023-04-05T17:04:00.078Z,12.25
2023-04-05T17:09:01.845Z,12.21
2023-04-05T17:14:03.474Z,12.11
2023-04-05T17:19:05.300Z,11.99
2023-04-05T17:24:07.420Z,11.94
2023-04-05T17:29:08.805Z,11.84
2023-04-05T17:34:13.266Z,11.75
2023-04-05T17:39:16.085Z,11.70
2023-04-05T17:44:17.570Z,11.61
2023-04-05T17:49:19.455Z,11.48
2023-04-05T17:54:20.982Z,11.40
2023-04-05T17:59:22.995Z,11.29
2023-04-05T18:04:25.590Z,11.18
2023-04-05T18:09:27.974Z,11.12
2023-04-05T18:14:30.227Z,11.01
2023-04-05T18:19:32.243Z,10.98
2023-04-05T18:24:33.797Z,10.90
2023-04-05T18:29:37.973Z,10.83
2023-04-05T18:34:39.427Z,10.81
2023-04-05T18:39:41.136Z,10.75
2023-04-05T18:44:42.593Z,10.69
2023-04-05T18:49:44.022Z,10.66
2023-04-05T18:54:45.444Z,10.54
2023-04-05T18:59:46.812Z,10.47
2023-04-05T19:04:48.380Z,10.42
2023-04-05T19:09:49.727Z,10.33
2023-04-05T19:14:51.758Z,10.23
2023-04-05T19:19:53.167Z,10.19
2023-04-05T19:24:54.725Z,10.17
2023-04-05T19:29:56.927Z,10.09
2023-04-05T19:34:59.531Z,10.03
2023-04-05T19:40:01.634Z,10.03
2023-04-05T19:45:07.968Z,9.97
2023-04-05T19:50:46.889Z,9.86
2023-04-05T19:55:48.442Z,9.83
2023-04-05T20:00:53.664Z,9.70
2023-04-05T20:06:06.027Z,9.74
2023-04-05T20:11:17.290Z,9.51
2023-04-05T20:16:25.598Z,9.20
2023-04-05T20:21:27.192Z,9.32
2023-04-05T20:26:33.276Z,9.30
2023-04-05T20:31:39.316Z,9.14
2023-04-05T20:36:51.788Z,9.09
2023-04-05T20:41:53.840Z,9.08
2023-04-05T20:46:57.201Z,9.09
2023-04-05T20:51:58.796Z,8.93
2023-04-05T20:57:00.205Z,8.74
2023-04-05T21:02:01.701Z,8.66
2023-04-05T21:07:03.895Z,8.75
2023-04-05T21:12:05.898Z,8.75
2023-04-05T21:17:07.242Z,8.79
2023-04-05T21:22:08.647Z,8.77
2023-04-05T21:27:09.996Z,8.73
2023-04-05T21:32:11.450Z,8.65
2023-04-05T21:37:12.816Z,8.59
2023-04-05T21:42:14.331Z,8.50
2023-04-05T21:47:17.422Z,8.34
2023-04-05T21:52:18.832Z,8.19
2023-04-05T21:57:20.228Z,8.13
2023-04-05T22:02:21.774Z,8.14
2023-04-05T22:07:23.363Z,8.21
2023-04-05T22:12:24.998Z,8.16
2023-04-05T22:17:26.507Z,8.13
2023-04-05T22:22:27.860Z,8.09
2023-04-05T22:27:30.113Z,7.99
2023-04-05T22:32:31.643Z,7.87
2023-04-05T22:37:36.327Z,7.71
2023-04-05T22:42:38.888Z,7.69
2023-04-05T22:47:40.390Z,7.65
2023-04-05T22:52:41.817Z,7.66
2023-04-05T22:57:43.909Z,7.57
2023-04-05T23:02:45.376Z,7.45
2023-04-05T23:07:47.109Z,7.34
2023-04-05T23:12:49.079Z,7.34
2023-04-05T23:17:50.681Z,7.25
2023-04-05T23:22:52.112Z,7.13
2023-04-05T23:27:56.312Z,6.93
2023-04-05T23:32:57.795Z,6.81
2023-04-05T23:37:59.220Z,6.85
2023-04-05T23:43:00.767Z,6.84
2023-04-05T23:48:02.503Z,6.79
2023-04-05T23:53:04.015Z,6.75
2023-04-05T23:58:05.897Z,6.62
